sensor_id;sensor_type;location;lat;lon;timestamp;P1;durP1;ratioP1;P2;durP2;ratioP2
37001;SDS011;22913;51.910;8.374;2023-05-07T00:01:19;6.33;;;5.60;;
37001;SDS011;22913;51.910;8.374;2023-05-07T00:04:05;7.03;;;6.33;;
37001;SDS011;22913;51.910;8.374;2023-05-07T00:06:51;8.40;;;6.73;;
37001;SDS011;22913;51.910;8.374;2023-05-07T00:09:39;7.07;;;6.30;;
37001;SDS011;22913;51.910;8.374;2023-05-07T00:12:25;8.03;;;7.23;;
37001;SDS011;22913;51.910;8.374;2023-05-07T00:15:11;7.57;;;6.80;;
37001;SDS011;22913;51.910;8.374;2023-05-07T00:17:57;7.07;;;6.33;;
37001;SDS011;22913;51.910;8.374;2023-05-07T00:20:43;7.70;;;7.00;;
37001;SDS011;22913;51.910;8.374;2023-05-07T00:23:29;8.97;;;7.00;;
37001;SDS011;22913;51.910;8.374;2023-05-07T00:26:17;8.40;;;7.60;;
37001;SDS011;22913;51.910;8.374;2023-05-07T00:29:02;8.33;;;7.53;;
37001;SDS011;22913;51.910;8.374;2023-05-07T00:31:49;8.60;;;7.80;;
37001;SDS011;22913;51.910;8.374;2023-05-07T00:34:35;10.50;;;7.40;;
37001;SDS011;22913;51.910;8.374;2023-05-07T00:37:20;8.77;;;7.97;;
37001;SDS011;22913;51.910;8.374;2023-05-07T00:40:07;10.43;;;8.50;;
37001;SDS011;22913;51.910;8.374;2023-05-07T00:42:54;8.10;;;7.40;;
37001;SDS011;22913;51.910;8.374;2023-05-07T00:45:41;8.43;;;7.73;;
37001;SDS011;22913;51.910;8.374;2023-05-07T00:48:27;8.93;;;8.03;;
37001;SDS011;22913;51.910;8.374;2023-05-07T00:51:13;8.97;;;8.17;;
37001;SDS011;22913;51.910;8.374;2023-05-07T00:53:59;9.03;;;8.23;;
37001;SDS011;22913;51.910;8.374;2023-05-07T00:56:46;9.70;;;8.67;;
37001;SDS011;22913;51.910;8.374;2023-05-07T00:59:34;9.50;;;8.50;;
37001;SDS011;22913;51.910;8.374;2023-05-07T01:02:20;8.77;;;8.07;;
37001;SDS011;22913;51.910;8.374;2023-05-07T01:05:06;10.93;;;8.23;;
37001;SDS011;22913;51.910;8.374;2023-05-07T01:07:56;11.90;;;9.03;;
37001;SDS011;22913;51.910;8.374;2023-05-07T01:10:42;9.77;;;8.87;;
37001;SDS011;22913;51.910;8.374;2023-05-07T01:13:28;9.30;;;8.40;;
37001;SDS011;22913;51.910;8.374;2023-05-07T01:16:16;9.23;;;8.30;;
37001;SDS011;22913;51.910;8.374;2023-05-07T01:19:02;9.70;;;8.80;;
37001;SDS011;22913;51.910;8.374;2023-05-07T01:21:48;9.63;;;8.73;;
37001;SDS011;22913;51.910;8.374;2023-05-07T01:24:37;10.93;;;9.17;;
37001;SDS011;22913;51.910;8.374;2023-05-07T01:27:23;10.20;;;9.20;;
37001;SDS011;22913;51.910;8.374;2023-05-07T01:30:08;11.43;;;8.50;;
37001;SDS011;22913;51.910;8.374;2023-05-07T01:32:56;9.90;;;8.63;;
37001;SDS011;22913;51.910;8.374;2023-05-07T01:35:47;10.23;;;9.20;;
37001;SDS011;22913;51.910;8.374;2023-05-07T01:38:34;9.47;;;8.57;;
37001;SDS011;22913;51.910;8.374;2023-05-07T01:41:22;10.40;;;9.23;;
37001;SDS011;22913;51.910;8.374;2023-05-07T01:44:08;9.53;;;8.63;;
37001;SDS011;22913;51.910;8.374;2023-05-07T01:46:57;10.67;;;9.60;;
37001;SDS011;22913;51.910;8.374;2023-05-07T01:49:43;9.83;;;8.90;;
37001;SDS011;22913;51.910;8.374;2023-05-07T01:52:28;10.30;;;9.30;;
37001;SDS011;22913;51.910;8.374;2023-05-07T01:55:14;11.37;;;9.80;;
37001;SDS011;22913;51.910;8.374;2023-05-07T01:58:01;10.80;;;9.90;;
37001;SDS011;22913;51.910;8.374;2023-05-07T02:00:46;11.50;;;10.40;;
37001;SDS011;22913;51.910;8.374;2023-05-07T02:03:32;10.73;;;9.83;;
37001;SDS011;22913;51.910;8.374;2023-05-07T02:06:17;10.90;;;9.77;;
37001;SDS011;22913;51.910;8.374;2023-05-07T02:09:04;11.13;;;9.60;;
37001;SDS011;22913;51.910;8.374;2023-05-07T02:11:50;10.23;;;9.33;;
37001;SDS011;22913;51.910;8.374;2023-05-07T02:14:37;10.70;;;9.60;;
37001;SDS011;22913;51.910;8.374;2023-05-07T02:17:22;10.07;;;9.17;;
37001;SDS011;22913;51.910;8.374;2023-05-07T02:20:09;11.00;;;9.90;;
37001;SDS011;22913;51.910;8.374;2023-05-07T02:22:57;10.97;;;9.80;;
37001;SDS011;22913;51.910;8.374;2023-05-07T02:25:42;11.03;;;9.87;;
37001;SDS011;22913;51.910;8.374;2023-05-07T02:28:28;11.00;;;9.80;;
37001;SDS011;22913;51.910;8.374;2023-05-07T02:31:15;11.70;;;10.57;;
37001;SDS011;22913;51.910;8.374;2023-05-07T02:34:01;14.33;;;10.77;;
37001;SDS011;22913;51.910;8.374;2023-05-07T02:36:47;10.60;;;9.60;;
37001;SDS011;22913;51.910;8.374;2023-05-07T02:39:33;11.83;;;10.73;;
37001;SDS011;22913;51.910;8.374;2023-05-07T02:42:18;11.30;;;10.30;;
37001;SDS011;22913;51.910;8.374;2023-05-07T02:45:04;11.63;;;10.43;;
37001;SDS011;22913;51.910;8.374;2023-05-07T02:47:52;11.90;;;10.70;;
37001;SDS011;22913;51.910;8.374;2023-05-07T02:50:38;11.83;;;10.60;;
37001;SDS011;22913;51.910;8.374;2023-05-07T02:53:24;13.37;;;10.93;;
37001;SDS011;22913;51.910;8.374;2023-05-07T02:56:10;14.50;;;11.30;;
37001;SDS011;22913;51.910;8.374;2023-05-07T02:58:56;13.53;;;11.00;;
37001;SDS011;22913;51.910;8.374;2023-05-07T03:01:42;11.70;;;10.50;;
37001;SDS011;22913;51.910;8.374;2023-05-07T03:04:30;11.87;;;10.77;;
37001;SDS011;22913;51.910;8.374;2023-05-07T03:07:15;12.20;;;11.10;;
37001;SDS011;22913;51.910;8.374;2023-05-07T03:10:01;11.37;;;10.37;;
37001;SDS011;22913;51.910;8.374;2023-05-07T03:12:46;12.43;;;11.20;;
37001;SDS011;22913;51.910;8.374;2023-05-07T03:15:32;12.77;;;11.47;;
37001;SDS011;22913;51.910;8.374;2023-05-07T03:18:18;12.23;;;11.07;;
37001;SDS011;22913;51.910;8.374;2023-05-07T03:21:05;13.17;;;11.50;;
37001;SDS011;22913;51.910;8.374;2023-05-07T03:23:50;12.37;;;11.03;;
37001;SDS011;22913;51.910;8.374;2023-05-07T03:26:36;15.57;;;11.40;;
37001;SDS011;22913;51.910;8.374;2023-05-07T03:29:21;14.93;;;12.00;;
37001;SDS011;22913;51.910;8.374;2023-05-07T03:32:07;13.10;;;11.77;;
37001;SDS011;22913;51.910;8.374;2023-05-07T03:34:53;12.27;;;10.90;;
37001;SDS011;22913;51.910;8.374;2023-05-07T03:37:40;12.10;;;10.87;;
37001;SDS011;22913;51.910;8.374;2023-05-07T03:40:27;13.50;;;11.60;;
37001;SDS011;22913;51.910;8.374;2023-05-07T03:43:13;13.10;;;11.80;;
37001;SDS011;22913;51.910;8.374;2023-05-07T03:45:58;12.10;;;11.00;;
37001;SDS011;22913;51.910;8.374;2023-05-07T03:48:44;12.60;;;11.30;;
37001;SDS011;22913;51.910;8.374;2023-05-07T03:51:30;12.43;;;11.17;;
37001;SDS011;22913;51.910;8.374;2023-05-07T03:54:17;14.13;;;12.10;;
37001;SDS011;22913;51.910;8.374;2023-05-07T03:57:02;12.37;;;11.23;;
37001;SDS011;22913;51.910;8.374;2023-05-07T03:59:48;13.13;;;11.90;;
37001;SDS011;22913;51.910;8.374;2023-05-07T04:02:33;12.03;;;10.77;;
37001;SDS011;22913;51.910;8.374;2023-05-07T04:05:19;14.20;;;12.53;;
37001;SDS011;22913;51.910;8.374;2023-05-07T04:08:04;13.00;;;11.77;;
37001;SDS011;22913;51.910;8.374;2023-05-07T04:10:55;12.43;;;11.27;;
37001;SDS011;22913;51.910;8.374;2023-05-07T04:13:41;14.47;;;11.43;;
37001;SDS011;22913;51.910;8.374;2023-05-07T04:16:27;15.93;;;10.93;;
37001;SDS011;22913;51.910;8.374;2023-05-07T04:19:12;12.53;;;11.33;;
37001;SDS011;22913;51.910;8.374;2023-05-07T04:21:58;15.43;;;12.10;;
37001;SDS011;22913;51.910;8.374;2023-05-07T04:24:44;12.57;;;11.33;;
37001;SDS011;22913;51.910;8.374;2023-05-07T04:27:31;12.37;;;11.17;;
37001;SDS011;22913;51.910;8.374;2023-05-07T04:30:17;14.47;;;11.83;;
37001;SDS011;22913;51.910;8.374;2023-05-07T04:33:02;13.43;;;12.10;;
37001;SDS011;22913;51.910;8.374;2023-05-07T04:35:49;13.73;;;12.43;;
37001;SDS011;22913;51.910;8.374;2023-05-07T04:38:35;13.07;;;11.67;;
37001;SDS011;22913;51.910;8.374;2023-05-07T04:41:20;12.73;;;11.50;;
37001;SDS011;22913;51.910;8.374;2023-05-07T04:44:08;13.00;;;11.77;;
37001;SDS011;22913;51.910;8.374;2023-05-07T04:46:54;13.70;;;12.43;;
37001;SDS011;22913;51.910;8.374;2023-05-07T04:49:40;13.20;;;12.00;;
37001;SDS011;22913;51.910;8.374;2023-05-07T04:52:25;13.63;;;12.30;;
37001;SDS011;22913;51.910;8.374;2023-05-07T04:55:11;14.40;;;13.00;;
37001;SDS011;22913;51.910;8.374;2023-05-07T04:57:57;14.03;;;12.73;;
37001;SDS011;22913;51.910;8.374;2023-05-07T05:00:46;13.97;;;12.47;;
37001;SDS011;22913;51.910;8.374;2023-05-07T05:03:32;13.90;;;12.43;;
37001;SDS011;22913;51.910;8.374;2023-05-07T05:06:17;15.30;;;12.33;;
37001;SDS011;22913;51.910;8.374;2023-05-07T05:09:03;13.90;;;12.60;;
37001;SDS011;22913;51.910;8.374;2023-05-07T05:11:49;14.70;;;13.30;;
37001;SDS011;22913;51.910;8.374;2023-05-07T05:14:35;13.40;;;12.07;;
37001;SDS011;22913;51.910;8.374;2023-05-07T05:17:22;13.37;;;12.07;;
37001;SDS011;22913;51.910;8.374;2023-05-07T05:20:07;13.37;;;12.07;;
37001;SDS011;22913;51.910;8.374;2023-05-07T05:22:54;13.40;;;12.10;;
37001;SDS011;22913;51.910;8.374;2023-05-07T05:25:40;14.53;;;12.93;;
37001;SDS011;22913;51.910;8.374;2023-05-07T05:28:26;13.87;;;12.30;;
37001;SDS011;22913;51.910;8.374;2023-05-07T05:31:12;13.97;;;12.57;;
37001;SDS011;22913;51.910;8.374;2023-05-07T05:33:59;16.40;;;13.43;;
37001;SDS011;22913;51.910;8.374;2023-05-07T05:36:44;13.33;;;11.80;;
37001;SDS011;22913;51.910;8.374;2023-05-07T05:39:31;14.87;;;13.27;;
37001;SDS011;22913;51.910;8.374;2023-05-07T05:42:17;14.37;;;12.87;;
37001;SDS011;22913;51.910;8.374;2023-05-07T05:45:03;16.93;;;13.27;;
37001;SDS011;22913;51.910;8.374;2023-05-07T05:47:49;15.47;;;13.80;;
37001;SDS011;22913;51.910;8.374;2023-05-07T05:50:36;15.77;;;13.33;;
37001;SDS011;22913;51.910;8.374;2023-05-07T05:53:22;14.77;;;13.33;;
37001;SDS011;22913;51.910;8.374;2023-05-07T05:56:08;17.40;;;12.93;;
37001;SDS011;22913;51.910;8.374;2023-05-07T05:58:54;13.87;;;12.57;;
37001;SDS011;22913;51.910;8.374;2023-05-07T06:01:40;15.73;;;14.03;;
37001;SDS011;22913;51.910;8.374;2023-05-07T06:04:27;14.93;;;13.43;;
37001;SDS011;22913;51.910;8.374;2023-05-07T06:07:14;13.70;;;12.30;;
37001;SDS011;22913;51.910;8.374;2023-05-07T06:10:01;14.83;;;13.27;;
37001;SDS011;22913;51.910;8.374;2023-05-07T06:12:47;14.80;;;12.97;;
37001;SDS011;22913;51.910;8.374;2023-05-07T06:15:33;14.23;;;12.93;;
37001;SDS011;22913;51.910;8.374;2023-05-07T06:18:19;14.37;;;13.00;;
37001;SDS011;22913;51.910;8.374;2023-05-07T06:21:05;13.77;;;11.67;;
37001;SDS011;22913;51.910;8.374;2023-05-07T06:23:52;13.37;;;12.00;;
37001;SDS011;22913;51.910;8.374;2023-05-07T06:26:38;14.30;;;12.83;;
37001;SDS011;22913;51.910;8.374;2023-05-07T06:29:24;13.67;;;12.37;;
37001;SDS011;22913;51.910;8.374;2023-05-07T06:32:11;15.90;;;12.30;;
37001;SDS011;22913;51.910;8.374;2023-05-07T06:34:57;13.73;;;12.43;;
37001;SDS011;22913;51.910;8.374;2023-05-07T06:37:43;15.07;;;13.57;;
37001;SDS011;22913;51.910;8.374;2023-05-07T06:40:31;14.87;;;12.77;;
37001;SDS011;22913;51.910;8.374;2023-05-07T06:43:16;13.63;;;12.23;;
37001;SDS011;22913;51.910;8.374;2023-05-07T06:46:02;14.53;;;12.93;;
37001;SDS011;22913;51.910;8.374;2023-05-07T06:48:49;13.10;;;11.73;;
37001;SDS011;22913;51.910;8.374;2023-05-07T06:51:36;13.40;;;11.80;;
37001;SDS011;22913;51.910;8.374;2023-05-07T06:54:22;13.40;;;11.53;;
37001;SDS011;22913;51.910;8.374;2023-05-07T06:57:09;12.67;;;11.47;;
37001;SDS011;22913;51.910;8.374;2023-05-07T06:59:55;13.13;;;11.83;;
37001;SDS011;22913;51.910;8.374;2023-05-07T07:02:41;11.90;;;10.40;;
37001;SDS011;22913;51.910;8.374;2023-05-07T07:05:27;11.43;;;10.13;;
37001;SDS011;22913;51.910;8.374;2023-05-07T07:08:12;14.30;;;11.53;;
37001;SDS011;22913;51.910;8.374;2023-05-07T07:10:59;12.60;;;11.30;;
37001;SDS011;22913;51.910;8.374;2023-05-07T07:13:46;11.83;;;10.63;;
37001;SDS011;22913;51.910;8.374;2023-05-07T07:16:32;11.67;;;10.40;;
37001;SDS011;22913;51.910;8.374;2023-05-07T07:19:18;12.30;;;11.00;;
37001;SDS011;22913;51.910;8.374;2023-05-07T07:22:04;11.20;;;10.13;;
37001;SDS011;22913;51.910;8.374;2023-05-07T07:24:50;12.40;;;11.17;;
37001;SDS011;22913;51.910;8.374;2023-05-07T07:27:36;11.63;;;10.57;;
37001;SDS011;22913;51.910;8.374;2023-05-07T07:30:25;11.33;;;10.13;;
37001;SDS011;22913;51.910;8.374;2023-05-07T07:33:10;11.67;;;10.47;;
37001;SDS011;22913;51.910;8.374;2023-05-07T07:35:56;11.07;;;10.03;;
37001;SDS011;22913;51.910;8.374;2023-05-07T07:38:42;10.70;;;9.70;;
37001;SDS011;22913;51.910;8.374;2023-05-07T07:41:27;10.00;;;9.10;;
37001;SDS011;22913;51.910;8.374;2023-05-07T07:44:13;11.43;;;10.33;;
37001;SDS011;22913;51.910;8.374;2023-05-07T07:47:00;11.80;;;10.57;;
37001;SDS011;22913;51.910;8.374;2023-05-07T07:49:45;10.90;;;9.80;;
37001;SDS011;22913;51.910;8.374;2023-05-07T07:52:31;10.33;;;9.43;;
37001;SDS011;22913;51.910;8.374;2023-05-07T07:55:19;10.87;;;9.87;;
37001;SDS011;22913;51.910;8.374;2023-05-07T07:58:06;10.23;;;9.30;;
37001;SDS011;22913;51.910;8.374;2023-05-07T08:00:52;10.57;;;9.57;;
37001;SDS011;22913;51.910;8.374;2023-05-07T08:03:40;10.10;;;9.10;;
37001;SDS011;22913;51.910;8.374;2023-05-07T08:06:26;9.17;;;8.37;;
37001;SDS011;22913;51.910;8.374;2023-05-07T08:09:12;10.07;;;9.13;;
37001;SDS011;22913;51.910;8.374;2023-05-07T08:11:58;9.77;;;8.87;;
37001;SDS011;22913;51.910;8.374;2023-05-07T08:14:44;9.17;;;8.27;;
37001;SDS011;22913;51.910;8.374;2023-05-07T08:17:30;8.87;;;7.97;;
37001;SDS011;22913;51.910;8.374;2023-05-07T08:20:17;9.40;;;8.60;;
37001;SDS011;22913;51.910;8.374;2023-05-07T08:23:03;9.23;;;8.37;;
37001;SDS011;22913;51.910;8.374;2023-05-07T08:25:49;8.67;;;7.90;;
37001;SDS011;22913;51.910;8.374;2023-05-07T08:28:36;8.87;;;7.17;;
37001;SDS011;22913;51.910;8.374;2023-05-07T08:31:21;8.40;;;7.70;;
37001;SDS011;22913;51.910;8.374;2023-05-07T08:34:07;8.90;;;8.10;;
37001;SDS011;22913;51.910;8.374;2023-05-07T08:36:54;8.30;;;7.60;;
37001;SDS011;22913;51.910;8.374;2023-05-07T08:39:40;8.67;;;7.90;;
37001;SDS011;22913;51.910;8.374;2023-05-07T08:42:25;7.73;;;7.03;;
37001;SDS011;22913;51.910;8.374;2023-05-07T08:45:13;7.17;;;6.57;;
37001;SDS011;22913;51.910;8.374;2023-05-07T08:48:01;7.90;;;7.17;;
37001;SDS011;22913;51.910;8.374;2023-05-07T08:50:50;7.70;;;7.10;;
37001;SDS011;22913;51.910;8.374;2023-05-07T08:53:38;8.13;;;7.40;;
37001;SDS011;22913;51.910;8.374;2023-05-07T08:56:25;7.77;;;7.07;;
37001;SDS011;22913;51.910;8.374;2023-05-07T08:59:10;6.40;;;5.90;;
37001;SDS011;22913;51.910;8.374;2023-05-07T09:01:56;6.27;;;5.77;;
37001;SDS011;22913;51.910;8.374;2023-05-07T09:04:42;8.07;;;7.27;;
37001;SDS011;22913;51.910;8.374;2023-05-07T09:07:27;7.27;;;6.57;;
37001;SDS011;22913;51.910;8.374;2023-05-07T09:10:15;7.47;;;6.73;;
37001;SDS011;22913;51.910;8.374;2023-05-07T09:13:02;7.13;;;6.43;;
37001;SDS011;22913;51.910;8.374;2023-05-07T09:15:48;7.10;;;6.50;;
37001;SDS011;22913;51.910;8.374;2023-05-07T09:18:33;7.33;;;6.63;;
37001;SDS011;22913;51.910;8.374;2023-05-07T09:21:19;6.83;;;6.23;;
37001;SDS011;22913;51.910;8.374;2023-05-07T09:24:06;7.20;;;6.60;;
37001;SDS011;22913;51.910;8.374;2023-05-07T09:26:53;6.80;;;6.30;;
37001;SDS011;22913;51.910;8.374;2023-05-07T09:29:40;7.33;;;6.70;;
37001;SDS011;22913;51.910;8.374;2023-05-07T09:32:25;6.63;;;6.07;;
37001;SDS011;22913;51.910;8.374;2023-05-07T09:35:14;6.77;;;6.13;;
37001;SDS011;22913;51.910;8.374;2023-05-07T09:38:00;6.67;;;6.07;;
37001;SDS011;22913;51.910;8.374;2023-05-07T09:40:46;6.63;;;6.13;;
37001;SDS011;22913;51.910;8.374;2023-05-07T09:43:33;7.50;;;6.47;;
37001;SDS011;22913;51.910;8.374;2023-05-07T09:46:20;7.70;;;6.57;;
37001;SDS011;22913;51.910;8.374;2023-05-07T09:49:19;6.37;;;5.87;;
37001;SDS011;22913;51.910;8.374;2023-05-07T09:52:06;6.53;;;6.03;;
37001;SDS011;22913;51.910;8.374;2023-05-07T09:54:53;6.93;;;6.30;;
37001;SDS011;22913;51.910;8.374;2023-05-07T09:57:42;7.30;;;6.70;;
37001;SDS011;22913;51.910;8.374;2023-05-07T10:00:31;7.40;;;6.80;;
37001;SDS011;22913;51.910;8.374;2023-05-07T10:03:17;7.47;;;6.83;;
37001;SDS011;22913;51.910;8.374;2023-05-07T10:06:04;7.37;;;6.67;;
37001;SDS011;22913;51.910;8.374;2023-05-07T10:08:50;9.13;;;6.60;;
37001;SDS011;22913;51.910;8.374;2023-05-07T10:11:36;7.47;;;6.83;;
37001;SDS011;22913;51.910;8.374;2023-05-07T10:14:22;7.00;;;6.30;;
37001;SDS011;22913;51.910;8.374;2023-05-07T10:17:10;6.83;;;6.23;;
37001;SDS011;22913;51.910;8.374;2023-05-07T10:19:56;7.23;;;6.53;;
37001;SDS011;22913;51.910;8.374;2023-05-07T10:22:43;7.00;;;6.40;;
37001;SDS011;22913;51.910;8.374;2023-05-07T10:25:30;7.23;;;6.63;;
37001;SDS011;22913;51.910;8.374;2023-05-07T10:28:16;7.67;;;6.97;;
37001;SDS011;22913;51.910;8.374;2023-05-07T10:31:09;7.87;;;7.17;;
37001;SDS011;22913;51.910;8.374;2023-05-07T10:34:04;7.50;;;6.80;;
37001;SDS011;22913;51.910;8.374;2023-05-07T10:36:54;7.60;;;7.00;;
37001;SDS011;22913;51.910;8.374;2023-05-07T10:39:40;7.37;;;6.77;;
37001;SDS011;22913;51.910;8.374;2023-05-07T10:42:26;7.53;;;6.93;;
37001;SDS011;22913;51.910;8.374;2023-05-07T10:45:12;7.80;;;7.10;;
37001;SDS011;22913;51.910;8.374;2023-05-07T10:48:06;7.87;;;7.17;;
37001;SDS011;22913;51.910;8.374;2023-05-07T10:54:23;6.83;;;6.20;;
37001;SDS011;22913;51.910;8.374;2023-05-07T11:00:40;6.80;;;6.20;;
37001;SDS011;22913;51.910;8.374;2023-05-07T11:03:27;8.57;;;6.47;;
37001;SDS011;22913;51.910;8.374;2023-05-07T11:06:14;6.93;;;6.33;;
37001;SDS011;22913;51.910;8.374;2023-05-07T11:09:02;7.17;;;6.57;;
37001;SDS011;22913;51.910;8.374;2023-05-07T11:11:49;7.10;;;6.53;;
37001;SDS011;22913;51.910;8.374;2023-05-07T11:14:44;7.67;;;6.97;;
37001;SDS011;22913;51.910;8.374;2023-05-07T11:17:31;7.27;;;6.60;;
37001;SDS011;22913;51.910;8.374;2023-05-07T11:20:18;6.30;;;5.80;;
37001;SDS011;22913;51.910;8.374;2023-05-07T11:23:03;6.63;;;6.13;;
37001;SDS011;22913;51.910;8.374;2023-05-07T11:25:50;6.70;;;6.20;;
37001;SDS011;22913;51.910;8.374;2023-05-07T11:28:43;6.70;;;6.10;;
37001;SDS011;22913;51.910;8.374;2023-05-07T11:31:29;6.13;;;5.63;;
37001;SDS011;22913;51.910;8.374;2023-05-07T11:34:16;7.33;;;6.70;;
37001;SDS011;22913;51.910;8.374;2023-05-07T11:37:06;6.00;;;5.50;;
37001;SDS011;22913;51.910;8.374;2023-05-07T11:40:01;5.53;;;5.13;;
37001;SDS011;22913;51.910;8.374;2023-05-07T11:42:50;6.30;;;5.70;;
37001;SDS011;22913;51.910;8.374;2023-05-07T11:45:36;5.17;;;4.77;;
37001;SDS011;22913;51.910;8.374;2023-05-07T11:48:22;5.70;;;5.30;;
37001;SDS011;22913;51.910;8.374;2023-05-07T11:51:08;5.90;;;5.40;;
37001;SDS011;22913;51.910;8.374;2023-05-07T11:53:55;5.70;;;5.30;;
37001;SDS011;22913;51.910;8.374;2023-05-07T11:56:41;5.50;;;5.00;;
37001;SDS011;22913;51.910;8.374;2023-05-07T11:59:28;5.20;;;4.80;;
37001;SDS011;22913;51.910;8.374;2023-05-07T12:02:14;5.27;;;4.87;;
37001;SDS011;22913;51.910;8.374;2023-05-07T12:05:00;5.43;;;4.93;;
37001;SDS011;22913;51.910;8.374;2023-05-07T12:07:46;5.10;;;4.70;;
37001;SDS011;22913;51.910;8.374;2023-05-07T12:10:31;5.40;;;5.00;;
37001;SDS011;22913;51.910;8.374;2023-05-07T12:13:18;5.50;;;5.10;;
37001;SDS011;22913;51.910;8.374;2023-05-07T12:16:06;4.87;;;4.47;;
37001;SDS011;22913;51.910;8.374;2023-05-07T12:18:52;4.90;;;4.50;;
37001;SDS011;22913;51.910;8.374;2023-05-07T12:21:39;4.40;;;4.00;;
37001;SDS011;22913;51.910;8.374;2023-05-07T12:24:25;4.23;;;3.93;;
37001;SDS011;22913;51.910;8.374;2023-05-07T12:27:11;4.10;;;3.80;;
37001;SDS011;22913;51.910;8.374;2023-05-07T12:29:57;4.97;;;4.30;;
37001;SDS011;22913;51.910;8.374;2023-05-07T12:32:45;4.33;;;4.03;;
37001;SDS011;22913;51.910;8.374;2023-05-07T12:35:31;4.40;;;4.10;;
37001;SDS011;22913;51.910;8.374;2023-05-07T12:38:23;4.37;;;4.07;;
37001;SDS011;22913;51.910;8.374;2023-05-07T12:41:09;4.60;;;4.03;;
37001;SDS011;22913;51.910;8.374;2023-05-07T12:43:56;3.90;;;3.60;;
37001;SDS011;22913;51.910;8.374;2023-05-07T12:46:42;4.10;;;3.80;;
37001;SDS011;22913;51.910;8.374;2023-05-07T12:49:29;3.47;;;3.17;;
37001;SDS011;22913;51.910;8.374;2023-05-07T12:52:14;3.43;;;3.10;;
37001;SDS011;22913;51.910;8.374;2023-05-07T12:55:04;4.10;;;3.80;;
37001;SDS011;22913;51.910;8.374;2023-05-07T12:57:50;3.93;;;3.63;;
37001;SDS011;22913;51.910;8.374;2023-05-07T13:00:38;4.20;;;3.90;;
37001;SDS011;22913;51.910;8.374;2023-05-07T13:03:24;3.40;;;3.20;;
37001;SDS011;22913;51.910;8.374;2023-05-07T13:06:12;3.60;;;3.30;;
37001;SDS011;22913;51.910;8.374;2023-05-07T13:08:58;3.07;;;2.80;;
37001;SDS011;22913;51.910;8.374;2023-05-07T13:11:44;3.20;;;3.00;;
37001;SDS011;22913;51.910;8.374;2023-05-07T13:14:29;3.40;;;3.20;;
37001;SDS011;22913;51.910;8.374;2023-05-07T13:17:15;2.90;;;2.70;;
37001;SDS011;22913;51.910;8.374;2023-05-07T13:20:02;3.33;;;3.03;;
37001;SDS011;22913;51.910;8.374;2023-05-07T13:22:50;3.10;;;2.90;;
37001;SDS011;22913;51.910;8.374;2023-05-07T13:25:35;2.63;;;2.50;;
37001;SDS011;22913;51.910;8.374;2023-05-07T13:28:21;3.83;;;3.03;;
37001;SDS011;22913;51.910;8.374;2023-05-07T13:31:07;3.20;;;3.00;;
37001;SDS011;22913;51.910;8.374;2023-05-07T13:33:53;3.73;;;3.20;;
37001;SDS011;22913;51.910;8.374;2023-05-07T13:36:40;2.70;;;2.60;;
37001;SDS011;22913;51.910;8.374;2023-05-07T13:39:27;2.87;;;2.73;;
37001;SDS011;22913;51.910;8.374;2023-05-07T13:42:12;3.30;;;3.00;;
37001;SDS011;22913;51.910;8.374;2023-05-07T13:44:58;2.70;;;2.60;;
37001;SDS011;22913;51.910;8.374;2023-05-07T13:47:44;2.70;;;2.60;;
37001;SDS011;22913;51.910;8.374;2023-05-07T13:50:30;5.37;;;2.87;;
37001;SDS011;22913;51.910;8.374;2023-05-07T13:53:16;2.73;;;2.63;;
37001;SDS011;22913;51.910;8.374;2023-05-07T13:56:04;2.70;;;2.50;;
37001;SDS011;22913;51.910;8.374;2023-05-07T13:58:49;2.80;;;2.60;;
37001;SDS011;22913;51.910;8.374;2023-05-07T14:01:35;2.80;;;2.60;;
37001;SDS011;22913;51.910;8.374;2023-05-07T14:04:21;3.70;;;2.87;;
37001;SDS011;22913;51.910;8.374;2023-05-07T14:07:06;3.00;;;2.80;;
37001;SDS011;22913;51.910;8.374;2023-05-07T14:09:52;3.00;;;2.80;;
37001;SDS011;22913;51.910;8.374;2023-05-07T14:12:39;2.80;;;2.60;;
37001;SDS011;22913;51.910;8.374;2023-05-07T14:15:25;3.70;;;2.90;;
37001;SDS011;22913;51.910;8.374;2023-05-07T14:18:11;3.07;;;2.87;;
37001;SDS011;22913;51.910;8.374;2023-05-07T14:20:57;3.00;;;2.80;;
37001;SDS011;22913;51.910;8.374;2023-05-07T14:23:42;2.73;;;2.53;;
37001;SDS011;22913;51.910;8.374;2023-05-07T14:26:28;3.13;;;2.73;;
37001;SDS011;22913;51.910;8.374;2023-05-07T14:29:15;3.40;;;3.10;;
37001;SDS011;22913;51.910;8.374;2023-05-07T14:32:02;3.27;;;3.07;;
37001;SDS011;22913;51.910;8.374;2023-05-07T14:34:48;3.10;;;2.90;;
37001;SDS011;22913;51.910;8.374;2023-05-07T14:37:35;3.73;;;3.43;;
37001;SDS011;22913;51.910;8.374;2023-05-07T14:40:20;3.50;;;3.30;;
37001;SDS011;22913;51.910;8.374;2023-05-07T14:43:06;3.00;;;2.80;;
37001;SDS011;22913;51.910;8.374;2023-05-07T14:45:53;3.17;;;2.97;;
37001;SDS011;22913;51.910;8.374;2023-05-07T14:48:38;3.40;;;3.20;;
37001;SDS011;22913;51.910;8.374;2023-05-07T14:51:24;3.17;;;2.97;;
37001;SDS011;22913;51.910;8.374;2023-05-07T14:54:12;3.70;;;3.40;;
37001;SDS011;22913;51.910;8.374;2023-05-07T14:56:58;3.50;;;3.20;;
37001;SDS011;22913;51.910;8.374;2023-05-07T14:59:43;3.50;;;3.20;;
37001;SDS011;22913;51.910;8.374;2023-05-07T15:02:31;3.90;;;3.47;;
37001;SDS011;22913;51.910;8.374;2023-05-07T15:05:17;3.67;;;3.37;;
37001;SDS011;22913;51.910;8.374;2023-05-07T15:08:03;3.90;;;3.60;;
37001;SDS011;22913;51.910;8.374;2023-05-07T15:10:49;4.30;;;3.90;;
37001;SDS011;22913;51.910;8.374;2023-05-07T15:13:35;4.03;;;3.70;;
37001;SDS011;22913;51.910;8.374;2023-05-07T15:16:20;4.23;;;3.83;;
37001;SDS011;22913;51.910;8.374;2023-05-07T15:19:07;4.00;;;3.60;;
37001;SDS011;22913;51.910;8.374;2023-05-07T15:21:53;4.57;;;4.27;;
37001;SDS011;22913;51.910;8.374;2023-05-07T15:24:39;4.00;;;3.70;;
37001;SDS011;22913;51.910;8.374;2023-05-07T15:27:25;3.63;;;3.43;;
37001;SDS011;22913;51.910;8.374;2023-05-07T15:30:12;3.97;;;3.67;;
37001;SDS011;22913;51.910;8.374;2023-05-07T15:32:59;4.33;;;4.03;;
37001;SDS011;22913;51.910;8.374;2023-05-07T15:35:47;4.10;;;3.80;;
37001;SDS011;22913;51.910;8.374;2023-05-07T15:38:34;4.40;;;4.00;;
37001;SDS011;22913;51.910;8.374;2023-05-07T15:41:20;3.83;;;3.63;;
37001;SDS011;22913;51.910;8.374;2023-05-07T15:44:05;4.37;;;3.97;;
37001;SDS011;22913;51.910;8.374;2023-05-07T15:46:51;5.97;;;5.47;;
37001;SDS011;22913;51.910;8.374;2023-05-07T15:49:37;5.50;;;5.10;;
37001;SDS011;22913;51.910;8.374;2023-05-07T15:52:24;4.77;;;4.43;;
37001;SDS011;22913;51.910;8.374;2023-05-07T15:55:11;6.20;;;5.60;;
37001;SDS011;22913;51.910;8.374;2023-05-07T15:57:56;6.13;;;5.63;;
37001;SDS011;22913;51.910;8.374;2023-05-07T16:00:42;5.80;;;5.30;;
37001;SDS011;22913;51.910;8.374;2023-05-07T16:03:28;5.57;;;5.10;;
37001;SDS011;22913;51.910;8.374;2023-05-07T16:06:14;6.20;;;5.17;;
37001;SDS011;22913;51.910;8.374;2023-05-07T16:09:01;4.90;;;4.60;;
37001;SDS011;22913;51.910;8.374;2023-05-07T16:11:47;5.10;;;4.57;;
37001;SDS011;22913;51.910;8.374;2023-05-07T16:14:33;5.40;;;5.00;;
37001;SDS011;22913;51.910;8.374;2023-05-07T16:17:18;5.17;;;4.77;;
37001;SDS011;22913;51.910;8.374;2023-05-07T16:20:04;6.50;;;5.90;;
37001;SDS011;22913;51.910;8.374;2023-05-07T16:22:51;6.00;;;5.50;;
37001;SDS011;22913;51.910;8.374;2023-05-07T16:25:38;5.97;;;5.53;;
37001;SDS011;22913;51.910;8.374;2023-05-07T16:28:24;5.70;;;5.20;;
37001;SDS011;22913;51.910;8.374;2023-05-07T16:31:09;5.90;;;5.40;;
37001;SDS011;22913;51.910;8.374;2023-05-07T16:33:55;5.93;;;5.43;;
37001;SDS011;22913;51.910;8.374;2023-05-07T16:36:41;5.40;;;5.00;;
37001;SDS011;22913;51.910;8.374;2023-05-07T16:39:27;6.80;;;6.30;;